createdAt,value
2022-12-23T00:01:25.578Z,8.79
2022-12-23T00:03:52.677Z,8.74
2022-12-23T00:06:20.281Z,8.69
2022-12-23T00:08:47.019Z,8.74
2022-12-23T00:11:19.836Z,8.76
2022-12-23T00:14:05.594Z,8.78
2022-12-23T00:16:35.296Z,8.76
2022-12-23T00:19:01.980Z,8.67
2022-12-23T00:21:28.543Z,8.73
2022-12-23T00:23:55.115Z,8.64
2022-12-23T00:26:24.441Z,8.63
2022-12-23T00:28:51.532Z,8.68
2022-12-23T00:31:19.549Z,8.64
2022-12-23T00:33:48.952Z,8.66
2022-12-23T00:36:20.239Z,8.58
2022-12-23T00:39:05.552Z,8.50
2022-12-23T00:41:51.103Z,8.49
2022-12-23T00:44:17.967Z,8.52
2022-12-23T00:46:44.709Z,8.59
2022-12-23T00:49:35.325Z,8.54
2022-12-23T00:52:02.563Z,8.57
2022-12-23T00:54:29.409Z,8.47
2022-12-23T00:56:55.974Z,8.56
2022-12-23T00:59:22.545Z,8.56
2022-12-23T01:02:07.689Z,8.54
2022-12-23T01:04:53.743Z,8.58
2022-12-23T01:07:20.946Z,8.54
2022-12-23T01:09:47.635Z,8.50
2022-12-23T01:12:14.236Z,8.42
2022-12-23T01:14:41.209Z,8.43
2022-12-23T01:17:08.448Z,8.45
2022-12-23T01:19:35.423Z,8.48
2022-12-23T01:22:01.979Z,8.40
2022-12-23T01:24:30.533Z,8.39
2022-12-23T01:26:57.201Z,8.50
2022-12-23T01:29:24.116Z,8.41
2022-12-23T01:31:50.866Z,8.39
2022-12-23T01:34:17.513Z,8.19
2022-12-23T01:36:44.028Z,8.23
2022-12-23T01:39:10.639Z,8.31
2022-12-23T01:41:56.109Z,8.34
2022-12-23T01:45:00.852Z,8.30
2022-12-23T01:47:33.635Z,8.27
2022-12-23T01:50:07.193Z,8.28
2022-12-23T01:52:39.212Z,8.25
2022-12-23T01:55:06.555Z,8.25
2022-12-23T01:57:34.447Z,8.28
2022-12-23T02:00:19.583Z,8.34
2022-12-23T02:03:07.086Z,8.36
2022-12-23T02:05:35.177Z,8.34
2022-12-23T02:08:20.738Z,8.30
2022-12-23T02:10:59.773Z,8.30
2022-12-23T02:14:01.101Z,8.36
2022-12-23T02:16:31.547Z,8.41
2022-12-23T02:19:07.219Z,8.48
2022-12-23T02:21:46.989Z,8.56
2022-12-23T02:24:31.477Z,8.62
2022-12-23T02:27:12.976Z,8.68
2022-12-23T02:30:06.778Z,8.68
2022-12-23T02:32:46.231Z,8.71
2022-12-23T02:35:19.737Z,8.66
2022-12-23T02:38:10.232Z,8.70
2022-12-23T02:41:12.902Z,8.75
2022-12-23T02:43:45.291Z,8.83
2022-12-23T02:46:22.048Z,8.91
2022-12-23T02:49:23.198Z,8.87
2022-12-23T02:51:53.987Z,9.05
2022-12-23T02:54:29.596Z,8.96
2022-12-23T02:56:59.021Z,8.93
2022-12-23T02:59:35.787Z,8.92
2022-12-23T03:02:02.438Z,8.88
2022-12-23T03:04:29.056Z,8.97
2022-12-23T03:06:57.690Z,8.87
2022-12-23T03:10:03.248Z,8.86
2022-12-23T03:12:51.967Z,8.94
2022-12-23T03:15:50.864Z,8.88
2022-12-23T03:18:42.177Z,8.89
2022-12-23T03:21:17.823Z,8.92
2022-12-23T03:23:55.059Z,8.93
2022-12-23T03:26:40.868Z,8.82
2022-12-23T03:29:26.444Z,8.84
2022-12-23T03:31:55.227Z,8.94
2022-12-23T03:34:28.511Z,8.86
2022-12-23T03:36:58.975Z,8.87
2022-12-23T03:39:32.144Z,8.84
2022-12-23T03:42:05.773Z,8.84
2022-12-23T03:44:38.406Z,8.90
2022-12-23T03:47:08.734Z,8.85
2022-12-23T03:49:45.258Z,8.88
2022-12-23T03:52:21.683Z,8.78
2022-12-23T03:54:57.991Z,8.87
2022-12-23T03:57:40.377Z,8.91
2022-12-23T04:00:07.839Z,8.78
2022-12-23T04:02:47.074Z,8.73
2022-12-23T04:05:40.606Z,8.68
2022-12-23T04:08:17.678Z,8.78
2022-12-23T04:10:44.853Z,8.82
2022-12-23T04:13:11.773Z,8.90
2022-12-23T04:15:42.466Z,8.79
2022-12-23T04:18:11.193Z,8.72
2022-12-23T04:20:38.053Z,8.70
2022-12-23T04:23:05.218Z,8.67
2022-12-23T04:25:32.040Z,8.63
2022-12-23T04:27:58.642Z,8.65
2022-12-23T04:30:29.762Z,8.63
2022-12-23T04:33:02.034Z,8.62
2022-12-23T04:35:29.031Z,8.67
2022-12-23T04:37:55.666Z,8.68
2022-12-23T04:40:22.214Z,8.64
2022-12-23T04:42:48.835Z,8.73
2022-12-23T04:45:15.779Z,8.80
2022-12-23T04:47:42.322Z,8.83
2022-12-23T04:50:14.452Z,8.93
2022-12-23T04:52:41.345Z,8.85
2022-12-23T04:55:08.314Z,8.98
2022-12-23T04:57:35.035Z,9.06
2022-12-23T05:00:01.775Z,9.05
2022-12-23T05:02:28.554Z,8.96
2022-12-23T05:04:55.229Z,8.99
2022-12-23T05:07:22.029Z,8.88
2022-12-23T05:09:48.726Z,8.93
2022-12-23T05:12:15.317Z,8.99
2022-12-23T05:14:42.014Z,8.92
2022-12-23T05:17:08.727Z,9.01
2022-12-23T05:19:35.652Z,8.91
2022-12-23T05:22:02.262Z,9.04
2022-12-23T05:24:29.047Z,9.03
2022-12-23T05:26:59.719Z,9.06
2022-12-23T05:29:27.259Z,8.94
2022-12-23T05:31:54.071Z,8.96
2022-12-23T05:34:20.937Z,9.03
2022-12-23T05:36:47.678Z,9.03
2022-12-23T05:39:14.448Z,9.06
2022-12-23T05:41:41.156Z,9.03
2022-12-23T05:44:07.706Z,9.00
2022-12-23T05:46:34.609Z,8.98
2022-12-23T05:49:01.363Z,8.93
2022-12-23T05:51:27.947Z,8.98
2022-12-23T05:53:54.632Z,9.04
2022-12-23T05:56:21.234Z,9.02
2022-12-23T05:58:47.778Z,8.93
2022-12-23T06:01:14.816Z,8.89
2022-12-23T06:03:41.500Z,8.91
2022-12-23T06:06:08.461Z,8.86
2022-12-23T06:08:35.125Z,8.95
2022-12-23T06:11:05.015Z,8.96
2022-12-23T06:13:31.643Z,8.99
2022-12-23T06:15:58.394Z,8.94
2022-12-23T06:18:24.980Z,9.01
2022-12-23T06:20:51.569Z,9.03
2022-12-23T06:23:18.230Z,8.99
2022-12-23T06:25:44.908Z,9.02
2022-12-23T06:28:11.501Z,8.99
2022-12-23T06:30:38.019Z,9.12
2022-12-23T06:33:04.468Z,9.11
2022-12-23T06:35:31.222Z,9.07
2022-12-23T06:37:57.777Z,9.15
2022-12-23T06:40:24.366Z,9.12
2022-12-23T06:42:51.006Z,9.10
2022-12-23T06:45:17.739Z,9.05
2022-12-23T06:47:44.748Z,9.11
2022-12-23T06:50:11.524Z,9.09
2022-12-23T06:52:38.041Z,9.01
2022-12-23T06:55:05.301Z,9.06
2022-12-23T06:57:31.837Z,9.05
2022-12-23T06:59:58.437Z,8.97
2022-12-23T07:02:25.172Z,8.96
2022-12-23T07:04:51.878Z,8.98
2022-12-23T07:07:18.917Z,9.01
2022-12-23T07:09:45.406Z,9.03
2022-12-23T07:12:12.123Z,8.97
2022-12-23T07:14:38.721Z,8.96
2022-12-23T07:17:05.526Z,9.01
2022-12-23T07:19:32.325Z,9.02
2022-12-23T07:21:58.955Z,9.05
2022-12-23T07:24:25.588Z,9.08
2022-12-23T07:26:52.361Z,9.18
2022-12-23T07:29:18.974Z,9.18
2022-12-23T07:31:45.789Z,9.11
2022-12-23T07:34:12.488Z,9.21
2022-12-23T07:36:39.291Z,9.17
2022-12-23T07:39:06.329Z,9.18
2022-12-23T07:41:33.071Z,9.22
2022-12-23T07:43:59.741Z,9.33
2022-12-23T07:46:26.425Z,9.17
2022-12-23T07:48:53.104Z,9.14
2022-12-23T07:51:19.807Z,9.09
2022-12-23T07:53:50.440Z,9.00
2022-12-23T07:56:17.716Z,9.08
2022-12-23T07:58:48.590Z,9.14
2022-12-23T08:01:15.647Z,9.10
2022-12-23T08:03:42.225Z,9.10
2022-12-23T08:06:14.217Z,9.10
2022-12-23T08:08:43.551Z,9.09
2022-12-23T08:11:11.584Z,9.09
2022-12-23T08:13:42.527Z,9.23
2022-12-23T08:16:10.406Z,9.20
2022-12-23T08:18:39.042Z,9.21
2022-12-23T08:21:18.042Z,9.31
2022-12-23T08:23:47.004Z,9.34
2022-12-23T08:26:17.307Z,9.37
2022-12-23T08:28:45.042Z,9.41
2022-12-23T08:31:16.256Z,9.38
2022-12-23T08:33:45.147Z,9.38
2022-12-23T08:36:22.193Z,9.42
2022-12-23T08:38:50.543Z,9.56
2022-12-23T08:41:19.965Z,9.50
2022-12-23T08:43:46.634Z,9.46
2022-12-23T08:46:13.403Z,9.53
2022-12-23T08:48:45.177Z,9.60
2022-12-23T08:51:17.076Z,9.65
2022-12-23T08:53:44.624Z,9.61
2022-12-23T08:56:22.660Z,9.67
2022-12-23T08:58:52.840Z,9.89
2022-12-23T09:01:21.525Z,10.01
2022-12-23T09:03:49.048Z,10.02
2022-12-23T09:06:23.189Z,10.00
2022-12-23T09:08:54.470Z,10.06
2022-12-23T09:11:24.274Z,10.03
2022-12-23T09:13:51.348Z,10.03
2022-12-23T09:16:18.814Z,10.16
2022-12-23T09:18:45.436Z,10.19
2022-12-23T09:21:15.020Z,10.24
2022-12-23T09:23:42.003Z,10.20
2022-12-23T09:26:10.688Z,10.24
2022-12-23T09:28:37.721Z,10.27
2022-12-23T09:31:09.021Z,10.28
2022-12-23T09:33:36.757Z,10.32
2022-12-23T09:36:04.767Z,10.26
2022-12-23T09:38:31.980Z,10.37
2022-12-23T09:41:20.695Z,10.41
2022-12-23T09:44:16.599Z,10.24
2022-12-23T09:46:54.324Z,10.32
2022-12-23T09:49:24.093Z,10.27
2022-12-23T09:51:55.904Z,10.28
2022-12-23T09:54:25.081Z,10.26
2022-12-23T09:57:17.192Z,10.21
2022-12-23T10:00:11.727Z,10.32
2022-12-23T10:03:06.310Z,10.33
2022-12-23T10:06:10.339Z,10.28
2022-12-23T10:08:41.756Z,10.20
2022-12-23T10:11:20.846Z,10.09
2022-12-23T10:13:51.918Z,10.05
2022-12-23T10:16:26.183Z,10.09
2022-12-23T10:19:15.381Z,10.26
2022-12-23T10:21:49.193Z,10.20
2022-12-23T10:24:21.750Z,10.30
2022-12-23T10:26:57.159Z,10.28
2022-12-23T10:29:26.235Z,10.22
2022-12-23T10:32:11.918Z,10.17
2022-12-23T10:35:00.235Z,10.11
2022-12-23T10:37:29.779Z,10.01
2022-12-23T10:40:14.875Z,9.99
2022-12-23T10:42:46.885Z,9.93
2022-12-23T10:45:41.290Z,9.89
2022-12-23T10:49:04.747Z,9.91
2022-12-23T10:51:47.605Z,9.94
2022-12-23T10:54:24.032Z,10.06
2022-12-23T10:56:50.638Z,10.11
2022-12-23T10:59:25.702Z,10.13
2022-12-23T11:01:59.537Z,10.08
2022-12-23T11:04:35.378Z,10.17
2022-12-23T11:07:34.263Z,10.25
2022-12-23T11:10:13.490Z,10.21
2022-12-23T11:12:47.494Z,10.15
2022-12-23T11:15:32.170Z,10.11
2022-12-23T11:18:17.685Z,10.16
2022-12-23T11:21:06.149Z,10.25
2022-12-23T11:23:36.699Z,10.14
2022-12-23T11:26:09.897Z,10.25
2022-12-23T11:28:40.260Z,10.11
2022-12-23T11:31:14.675Z,10.10
2022-12-23T11:33:49.579Z,10.15
2022-12-23T11:36:24.877Z,10.23
2022-12-23T11:39:10.082Z,10.22
2022-12-23T11:41:40.447Z,10.18
2022-12-23T11:44:21.747Z,10.10
2022-12-23T11:46:49.073Z,10.16
2022-12-23T11:49:27.221Z,10.21
2022-12-23T11:52:02.001Z,10.18
2022-12-23T11:54:29.553Z,10.23
2022-12-23T11:56:57.494Z,10.28
2022-12-23T11:59:29.166Z,10.22
2022-12-23T12:01:58.939Z,10.26
2022-12-23T12:04:29.064Z,10.29
2022-12-23T12:06:56.741Z,10.30
2022-12-23T12:09:24.867Z,10.29
2022-12-23T12:12:04.129Z,10.33
2022-12-23T12:14:38.092Z,10.23
2022-12-23T12:17:19.084Z,10.30
2022-12-23T12:19:59.471Z,10.29
2022-12-23T12:22:44.163Z,10.21
2022-12-23T12:25:17.635Z,10.20
2022-12-23T12:27:51.140Z,10.19
2022-12-23T12:30:20.506Z,10.10
2022-12-23T12:32:56.904Z,10.08
2022-12-23T12:35:35.966Z,10.03
2022-12-23T12:38:16.145Z,10.04
2022-12-23T12:40:47.417Z,10.18
2022-12-23T12:43:28.208Z,10.11
2022-12-23T12:46:13.482Z,10.13
2022-12-23T12:48:51.572Z,10.16
2022-12-23T12:51:33.752Z,10.15
2022-12-23T12:54:27.723Z,10.25
2022-12-23T12:56:57.040Z,10.24
2022-12-23T12:59:37.962Z,10.30
2022-12-23T13:02:23.220Z,10.29
2022-12-23T13:05:17.256Z,10.28
2022-12-23T13:07:54.868Z,10.24
2022-12-23T13:10:33.691Z,10.17
2022-12-23T13:13:18.889Z,10.08
2022-12-23T13:16:22.927Z,10.16
2022-12-23T13:19:11.159Z,10.20
2022-12-23T13:21:43.861Z,10.14
2022-12-23T13:24:32.189Z,10.17
2022-12-23T13:27:12.196Z,10.06
2022-12-23T13:29:53.081Z,10.04
2022-12-23T13:32:28.581Z,10.02
2022-12-23T13:35:17.571Z,10.02
2022-12-23T13:38:05.788Z,10.00
2022-12-23T13:40:49.188Z,10.00
2022-12-23T13:43:20.429Z,9.95
2022-12-23T13:45:49.539Z,9.87
2022-12-23T13:48:42.263Z,9.80
2022-12-23T13:51:25.729Z,9.87
2022-12-23T13:54:07.807Z,9.82
2022-12-23T13:57:01.599Z,9.74
2022-12-23T13:59:42.801Z,9.74
2022-12-23T14:02:37.302Z,9.70
2022-12-23T14:05:09.262Z,9.71
2022-12-23T14:07:38.284Z,9.69
2022-12-23T14:10:22.004Z,9.66
2022-12-23T14:12:51.912Z,9.58
2022-12-23T14:15:35.145Z,9.60
2022-12-23T14:18:20.561Z,9.54
2022-12-23T14:20:51.885Z,9.53
2022-12-23T14:23:25.003Z,9.55
2022-12-23T14:26:19.336Z,9.55
2022-12-23T14:29:16.947Z,9.55
2022-12-23T14:31:54.181Z,9.51
2022-12-23T14:34:20.775Z,9.49
2022-12-23T14:37:20.467Z,9.55
2022-12-23T14:39:48.986Z,9.55
2022-12-23T14:42:56.131Z,9.62
2022-12-23T14:45:41.596Z,9.49
2022-12-23T14:48:35.864Z,9.44
2022-12-23T14:51:09.313Z,9.40
2022-12-23T14:53:54.093Z,9.39
2022-12-23T14:56:47.740Z,9.26
2022-12-23T14:59:52.389Z,9.23
2022-12-23T15:02:26.349Z,9.31
2022-12-23T15:04:59.589Z,9.16
2022-12-23T15:07:38.943Z,9.11
2022-12-23T15:10:09.653Z,9.13
2022-12-23T15:12:38.807Z,9.21
2022-12-23T15:15:16.168Z,9.15
2022-12-23T15:17:43.182Z,9.15
2022-12-23T15:20:19.087Z,9.13
2022-12-23T15:22:46.928Z,9.05
2022-12-23T15:25:24.586Z,9.10
2022-12-23T15:28:00.823Z,9.04
2022-12-23T15:30:34.638Z,9.01
2022-12-23T15:33:27.909Z,8.97
2022-12-23T15:35:54.260Z,8.97
2022-12-23T15:38:22.417Z,8.94
2022-12-23T15:41:04.784Z,8.93
2022-12-23T15:43:31.488Z,8.98
2022-12-23T15:46:28.657Z,8.95
2022-12-23T15:48:56.491Z,8.93
2022-12-23T15:51:57.581Z,8.84
2022-12-23T15:54:26.717Z,8.85
2022-12-23T15:56:54.761Z,8.76
2022-12-23T15:59:25.880Z,8.80
2022-12-23T16:01:53.778Z,8.85
2022-12-23T16:04:27.166Z,8.76
2022-12-23T16:06:54.871Z,8.78
2022-12-23T16:09:21.358Z,8.66
2022-12-23T16:11:56.838Z,8.63
2022-12-23T16:14:31.350Z,8.60
2022-12-23T16:17:00.244Z,8.66
2022-12-23T16:19:47.180Z,8.58
2022-12-23T16:22:19.730Z,8.59
2022-12-23T16:25:01.616Z,8.59
2022-12-23T16:27:36.081Z,8.62
2022-12-23T16:30:20.081Z,8.55
2022-12-23T16:32:52.623Z,8.55
2022-12-23T16:35:38.053Z,8.60
2022-12-23T16:38:23.171Z,8.51
2022-12-23T16:40:57.370Z,8.51
2022-12-23T16:43:24.971Z,8.57
2022-12-23T16:45:54.904Z,8.65
2022-12-23T16:48:39.379Z,8.75
2022-12-23T16:51:13.949Z,8.73
2022-12-23T16:53:40.731Z,8.76
2022-12-23T16:56:12.092Z,8.77
2022-12-23T16:58:39.046Z,8.78
2022-12-23T17:01:06.131Z,8.77
2022-12-23T17:03:33.093Z,8.83
2022-12-23T17:05:59.705Z,8.81
2022-12-23T17:08:26.247Z,8.83
2022-12-23T17:10:52.920Z,8.81
2022-12-23T17:13:19.657Z,8.82
2022-12-23T17:15:46.258Z,8.84
2022-12-23T17:18:15.288Z,8.79
2022-12-23T17:20:44.810Z,8.89
2022-12-23T17:23:40.951Z,8.85
2022-12-23T17:26:08.521Z,8.78
2022-12-23T17:28:35.145Z,8.87
2022-12-23T17:31:01.892Z,8.78
2022-12-23T17:33:31.363Z,8.84
2022-12-23T17:35:58.554Z,8.79
2022-12-23T17:38:27.432Z,8.79
2022-12-23T17:40:55.689Z,8.77
2022-12-23T17:43:23.250Z,8.71
2022-12-23T17:45:49.981Z,8.75
2022-12-23T17:48:22.171Z,8.73
2022-12-23T17:50:50.060Z,8.72
2022-12-23T17:53:19.134Z,8.72
2022-12-23T17:55:46.358Z,8.72
2022-12-23T17:58:14.368Z,8.75
2022-12-23T18:00:41.473Z,8.78
2022-12-23T18:03:23.533Z,8.74
2022-12-23T18:05:54.285Z,8.72
2022-12-23T18:08:26.198Z,8.72
2022-12-23T18:10:52.793Z,8.70
2022-12-23T18:13:19.921Z,8.79
2022-12-23T18:15:46.526Z,8.81
2022-12-23T18:18:19.088Z,8.88
2022-12-23T18:20:52.413Z,8.91
2022-12-23T18:23:23.456Z,8.93
2022-12-23T18:25:50.073Z,8.98
2022-12-23T18:28:16.536Z,8.99
2022-12-23T18:30:43.071Z,9.11
2022-12-23T18:33:11.767Z,9.15
2022-12-23T18:35:43.097Z,9.14
2022-12-23T18:38:10.761Z,9.25
2022-12-23T18:40:38.851Z,9.30
2022-12-23T18:43:06.112Z,9.28
2022-12-23T18:45:40.038Z,9.40
2022-12-23T18:48:08.571Z,9.38
2022-12-23T18:50:37.971Z,9.33
2022-12-23T18:53:06.214Z,9.45
2022-12-23T18:55:33.251Z,9.45
2022-12-23T18:58:01.119Z,9.43
2022-12-23T19:00:30.460Z,9.33
2022-12-23T19:02:58.016Z,9.29
2022-12-23T19:05:30.395Z,9.25
2022-12-23T19:07:58.945Z,9.18
2022-12-23T19:10:27.357Z,9.28
2022-12-23T19:12:54.255Z,9.38
2022-12-23T19:15:23.174Z,9.39
2022-12-23T19:17:53.062Z,9.47
2022-12-23T19:20:20.866Z,9.68
2022-12-23T19:22:48.136Z,9.79
2022-12-23T19:25:17.949Z,9.89
2022-12-23T19:27:45.762Z,9.92
2022-12-23T19:30:15.015Z,9.89
2022-12-23T19:32:41.584Z,9.93
2022-12-23T19:35:12.019Z,9.86
2022-12-23T19:37:38.528Z,9.78
2022-12-23T19:40:06.221Z,9.97
2022-12-23T19:42:34.158Z,10.00
2022-12-23T19:45:01.151Z,9.94
2022-12-23T19:47:27.755Z,10.08
2022-12-23T19:49:54.362Z,10.18
2022-12-23T19:52:20.936Z,10.08
2022-12-23T19:54:47.621Z,10.16
2022-12-23T19:57:14.226Z,10.10
2022-12-23T19:59:40.795Z,10.27
2022-12-23T20:02:07.557Z,10.25
2022-12-23T20:04:34.123Z,10.26
2022-12-23T20:07:00.743Z,10.25
2022-12-23T20:09:27.525Z,10.22
2022-12-23T20:11:54.071Z,10.35
2022-12-23T20:14:21.860Z,10.15
2022-12-23T20:16:48.698Z,10.16
2022-12-23T20:19:15.588Z,10.26
2022-12-23T20:21:42.079Z,10.26
2022-12-23T20:24:09.532Z,10.25
2022-12-23T20:26:36.225Z,10.34
2022-12-23T20:29:03.084Z,10.40
2022-12-23T20:31:32.193Z,10.29
2022-12-23T20:34:00.326Z,10.31
2022-12-23T20:36:30.404Z,10.52
2022-12-23T20:38:57.401Z,10.54
2022-12-23T20:41:26.187Z,10.51
2022-12-23T20:44:23.878Z,10.55
2022-12-23T20:46:40.296Z,10.56
2022-12-23T20:49:06.984Z,10.50
2022-12-23T20:51:33.521Z,10.52
2022-12-23T20:54:01.033Z,10.73
2022-12-23T20:56:29.514Z,10.73
2022-12-23T20:58:57.816Z,10.61
2022-12-23T21:01:39.823Z,10.56
2022-12-23T21:04:13.097Z,10.42
2022-12-23T21:06:40.281Z,10.30
2022-12-23T21:09:09.385Z,10.30
2022-12-23T21:11:40.342Z,10.28
2022-12-23T21:14:08.077Z,10.27
2022-12-23T21:16:36.748Z,10.19
2022-12-23T21:19:04.172Z,10.22
2022-12-23T21:21:32.145Z,10.21
2022-12-23T21:24:01.749Z,10.24
2022-12-23T21:26:30.525Z,10.14
2022-12-23T21:28:59.611Z,10.09
2022-12-23T21:31:27.697Z,10.06
2022-12-23T21:33:55.118Z,10.07
2022-12-23T21:36:25.550Z,10.21
2022-12-23T21:38:52.581Z,10.41
2022-12-23T21:41:21.875Z,10.34
2022-12-23T21:43:49.577Z,10.41
2022-12-23T21:46:19.107Z,10.42
2022-12-23T21:48:47.646Z,10.42
2022-12-23T21:51:15.521Z,10.39
2022-12-23T21:53:44.143Z,10.41
2022-12-23T21:56:13.703Z,10.48
2022-12-23T21:58:40.853Z,10.39
2022-12-23T22:01:16.093Z,10.30
2022-12-23T22:03:43.757Z,10.36
2022-12-23T22:06:13.411Z,10.32
2022-12-23T22:08:40.051Z,10.36
2022-12-23T22:11:08.917Z,10.36
2022-12-23T22:13:36.224Z,10.41
2022-12-23T22:16:03.765Z,10.39
2022-12-23T22:18:31.385Z,10.38
2022-12-23T22:20:58.136Z,10.28
2022-12-23T22:23:24.673Z,10.33
2022-12-23T22:25:55.331Z,10.33
2022-12-23T22:28:22.127Z,10.34
2022-12-23T22:30:48.667Z,10.36
2022-12-23T22:33:15.437Z,10.40
2022-12-23T22:35:42.164Z,10.41
2022-12-23T22:38:08.647Z,10.39
2022-12-23T22:40:35.345Z,10.40
2022-12-23T22:43:02.026Z,10.35
2022-12-23T22:45:28.683Z,10.32
2022-12-23T22:47:55.584Z,10.39
2022-12-23T22:50:22.355Z,10.38
2022-12-23T22:52:48.886Z,10.37
2022-12-23T22:55:15.492Z,10.27
2022-12-23T22:57:42.047Z,10.30
2022-12-23T23:00:12.585Z,10.24
2022-12-23T23:02:39.456Z,10.23
2022-12-23T23:05:12.340Z,10.32
2022-12-23T23:07:39.891Z,10.22
2022-12-23T23:10:07.448Z,10.20
2022-12-23T23:12:34.190Z,10.27
2022-12-23T23:15:00.756Z,10.30
2022-12-23T23:17:28.535Z,10.16
2022-12-23T23:19:55.442Z,10.18
2022-12-23T23:22:23.800Z,10.02
2022-12-23T23:24:51.081Z,10.12
2022-12-23T23:27:17.937Z,10.13
2022-12-23T23:29:44.539Z,10.01
2022-12-23T23:32:11.093Z,10.06
2022-12-23T23:34:37.717Z,10.17
2022-12-23T23:37:05.058Z,10.19
2022-12-23T23:39:31.631Z,10.26
2022-12-23T23:41:58.395Z,10.29
2022-12-23T23:44:24.947Z,10.27
2022-12-23T23:46:51.638Z,10.25
2022-12-23T23:49:18.275Z,10.34
2022-12-23T23:51:44.880Z,10.33
2022-12-23T23:54:11.454Z,10.25
2022-12-23T23:56:39.480Z,10.38
2022-12-23T23:59:07.005Z,10.28
